Time;durP1;ratioP1;P1;durP2;ratioP2;P2;SDS_P1;SDS_P2;PMS_P1;PMS_P2;Temp;Humidity;BMP_temperature;BMP_pressure;BME280_temperature;BME280_humidity;BME280_pressure;Samples;Min_cycle;Max_cycle;Signal;HPM_P1;HPM_P2
2023/01/28 00:02:07;;;;;;;12.90;9.00;;;;;;;0.80;100.00;103147.28;5114700;28;20031;-80
2023/01/28 00:04:33;;;;;;;14.95;9.93;;;;;;;0.79;100.00;103153.38;5113956;28;20028;-79
2023/01/28 00:06:58;;;;;;;12.65;9.32;;;;;;;0.78;100.00;103160.38;5115784;28;20057;-80
2023/01/28 00:09:24;;;;;;;13.63;9.27;;;;;;;0.78;100.00;103154.28;5114601;28;20032;-80
2023/01/28 00:11:50;;;;;;;14.50;9.15;;;;;;;0.79;100.00;103159.50;5115643;28;20028;-80
2023/01/28 00:14:15;;;;;;;11.48;8.43;;;;;;;0.77;100.00;103152.56;5115883;28;20032;-80
2023/01/28 00:16:41;;;;;;;12.38;8.60;;;;;;;0.76;100.00;103145.56;5115225;28;20561;-80
2023/01/28 00:19:07;;;;;;;13.57;8.63;;;;;;;0.77;100.00;103139.44;5115301;28;20031;-80
2023/01/28 00:21:32;;;;;;;11.73;8.63;;;;;;;0.76;100.00;103138.59;5115445;28;20099;-79
2023/01/28 00:23:57;;;;;;;12.32;9.20;;;;;;;0.76;100.00;103135.09;5114794;28;20065;-79
2023/01/28 00:26:24;;;;;;;13.85;9.48;;;;;;;0.75;100.00;103141.19;5114880;28;20067;-79
2023/01/28 00:28:49;;;;;;;11.95;8.85;;;;;;;0.75;100.00;103141.19;5114530;28;20061;-79
2023/01/28 00:31:20;;;;;;;12.43;9.40;;;;;;;0.75;100.00;103138.56;5115160;28;20032;-80
2023/01/28 00:33:48;;;;;;;13.02;9.05;;;;;;;0.73;100.00;103132.50;5115044;28;20042;-79
2023/01/28 00:36:14;;;;;;;13.10;9.85;;;;;;;0.74;100.00;103129.00;5114630;28;20464;-79
2023/01/28 00:38:41;;;;;;;13.98;9.20;;;;;;;0.73;100.00;103127.25;5113855;28;20479;-80
2023/01/28 00:41:17;;;;;;;12.57;9.55;;;;;;;0.73;100.00;103132.50;5114125;28;20061;-79
2023/01/28 00:43:45;;;;;;;14.68;10.25;;;;;;;0.74;100.00;103136.88;5114627;28;20031;-79
2023/01/28 00:46:12;;;;;;;15.80;10.60;;;;;;;0.73;100.00;103135.97;5114200;28;20031;-79
2023/01/28 00:48:39;;;;;;;15.73;10.35;;;;;;;0.72;100.00;103136.00;5114430;28;20075;-78
2023/01/28 00:51:05;;;;;;;12.95;9.43;;;;;;;0.70;100.00;103134.28;5114478;28;20110;-79
2023/01/28 00:53:30;;;;;;;13.75;9.20;;;;;;;0.70;100.00;103139.53;5114704;28;20063;-79
2023/01/28 00:55:55;;;;;;;14.52;10.05;;;;;;;0.69;100.00;103145.66;5114252;28;20495;-79
2023/01/28 00:58:23;;;;;;;13.23;9.65;;;;;;;0.72;100.00;103143.84;5114289;28;20511;-79
2023/01/28 01:00:49;;;;;;;13.32;9.50;;;;;;;0.72;100.00;103146.47;5114312;28;20046;-79
2023/01/28 01:03:14;;;;;;;13.25;9.32;;;;;;;0.71;100.00;103140.38;5114316;28;20031;-78
2023/01/28 01:05:39;;;;;;;12.73;9.15;;;;;;;0.72;100.00;103149.09;5114219;28;20028;-80
2023/01/28 01:08:05;;;;;;;13.00;9.13;;;;;;;0.71;100.00;103150.88;5114019;28;20390;-79
2023/01/28 01:10:30;;;;;;;12.40;8.38;;;;;;;0.68;100.00;103143.91;5114517;28;20484;-79
2023/01/28 01:12:58;;;;;;;9.98;8.05;;;;;;;0.69;100.00;103152.66;5114851;28;20024;-79
2023/01/28 01:15:23;;;;;;;11.98;7.97;;;;;;;0.68;100.00;103150.91;5114533;28;20028;-78
2023/01/28 01:17:49;;;;;;;11.80;8.60;;;;;;;0.65;100.00;103154.41;5114089;28;20087;-79
2023/01/28 01:20:20;;;;;;;10.77;8.02;;;;;;;0.64;100.00;103151.81;5113794;28;20038;-78
2023/01/28 01:22:46;;;;;;;10.15;7.13;;;;;;;0.63;100.00;103157.97;5114072;28;20507;-79
2023/01/28 01:25:13;;;;;;;10.43;7.82;;;;;;;0.60;100.00;103147.50;5114315;28;20122;-79
2023/01/28 01:27:39;;;;;;;12.18;7.95;;;;;;;0.59;100.00;103151.88;5113946;28;20043;-79
2023/01/28 01:30:06;;;;;;;9.20;7.10;;;;;;;0.58;100.00;103146.66;5113647;28;20039;-79
2023/01/28 01:32:33;;;;;;;11.45;7.38;;;;;;;0.56;100.00;103143.19;5113954;28;20116;-79
2023/01/28 01:34:59;;;;;;;10.65;7.38;;;;;;;0.55;100.00;103144.06;5113701;28;20030;-79
2023/01/28 01:37:24;;;;;;;11.10;8.23;;;;;;;0.56;100.00;103140.56;5112451;28;20028;-79
2023/01/28 01:39:50;;;;;;;9.57;7.32;;;;;;;0.55;100.00;103141.44;5113775;28;20089;-79
2023/01/28 01:42:15;;;;;;;9.75;7.22;;;;;;;0.54;100.00;103148.44;5113997;28;20389;-78
2023/01/28 01:45:06;;;;;;;9.95;7.38;;;;;;;0.51;100.00;103151.13;5113694;28;20488;-79
2023/01/28 01:47:38;;;;;;;10.38;8.35;;;;;;;0.50;100.00;103147.59;5113693;28;20067;-78
2023/01/28 01:50:16;;;;;;;9.90;7.63;;;;;;;0.49;100.00;103148.50;5113296;28;20055;-79
2023/01/28 01:52:42;;;;;;;11.98;8.32;;;;;;;0.48;100.00;103145.91;5114127;28;20084;-79
2023/01/28 01:55:12;;;;;;;11.32;7.63;;;;;;;0.46;100.00;103139.78;5114134;28;20023;-79
2023/01/28 01:57:38;;;;;;;11.75;7.80;;;;;;;0.45;100.00;103136.31;5113475;28;20059;-79
2023/01/28 02:00:06;;;;;;;9.52;6.72;;;;;;;0.44;100.00;103134.56;5113443;28;20070;-78
2023/01/28 02:02:39;;;;;;;9.88;6.97;;;;;;;0.44;100.00;103144.19;5112242;28;20032;-78
2023/01/28 02:05:06;;;;;;;10.27;6.97;;;;;;;0.43;100.00;103138.06;5115684;28;20035;-77
2023/01/28 02:07:32;;;;;;;8.23;6.22;;;;;;;0.43;100.00;103145.06;5121243;28;20132;-79
2023/01/28 02:09:57;;;;;;;9.98;6.65;;;;;;;0.41;100.00;103145.09;5121264;28;20424;-79
2023/01/28 02:12:35;;;;;;;8.00;6.38;;;;;;;0.41;100.00;103152.94;5119744;28;20028;-78
2023/01/28 02:15:05;;;;;;;7.72;5.78;;;;;;;0.40;100.00;103156.44;5123543;28;20096;-78
2023/01/28 02:17:31;;;;;;;8.10;6.20;;;;;;;0.40;100.00;103145.13;5118289;28;20024;-78
2023/01/28 02:20:03;;;;;;;7.28;5.80;;;;;;;0.40;100.00;103160.81;5113938;28;20080;-78
2023/01/28 02:22:39;;;;;;;11.82;6.53;;;;;;;0.39;100.00;103159.97;5113163;28;20070;-78
2023/01/28 02:25:32;;;;;;;7.80;6.28;;;;;;;0.39;100.00;103169.56;5113521;28;20034;-78
2023/01/28 02:28:16;;;;;;;9.48;6.50;;;;;;;0.39;100.00;103167.81;5113606;28;20448;-77
2023/01/28 02:31:06;;;;;;;7.72;5.70;;;;;;;0.38;100.00;103163.47;5112945;28;20024;-78
2023/01/28 02:34:02;;;;;;;6.97;5.28;;;;;;;0.38;100.00;103160.00;5070826;28;20036;-79
2023/01/28 02:36:50;;;;;;;9.80;6.22;;;;;;;0.36;100.00;103162.63;5084100;28;20031;-78
2023/01/28 02:39:22;;;;;;;8.55;6.30;;;;;;;0.36;100.00;103157.38;5113489;28;20087;-78
2023/01/28 02:42:27;;;;;;;7.32;5.20;;;;;;;0.34;100.00;103154.78;5115002;28;20077;-79
2023/01/28 02:44:53;;;;;;;6.35;4.75;;;;;;;0.33;100.00;103150.41;5106024;28;20131;-78
2023/01/28 02:50:07;;;;;;;6.22;4.95;;;;;;;0.33;100.00;103152.19;5113308;28;20050;-78
2023/01/28 02:55:28;;;;;;;7.13;5.10;;;;;;;0.33;100.00;103146.94;5113471;28;20132;-79
2023/01/28 02:58:00;;;;;;;5.80;4.68;;;;;;;0.33;100.00;103167.91;5112918;28;20028;-79
2023/01/28 03:00:33;;;;;;;;;;;;;;;0.33;100.00;103157.41;5113477;28;20032;-79
2023/01/28 03:03:04;;;;;;;6.93;5.00;;;;;;;0.33;100.00;103166.13;5115846;28;19907;-78
2023/01/28 03:05:38;;;;;;;6.35;4.97;;;;;;;0.32;100.00;103169.63;5117180;28;20031;-79
2023/01/28 03:09:21;;;;;;;6.53;4.78;;;;;;;0.32;100.00;103168.78;5116682;28;20027;-78
2023/01/28 03:38:57;;;;;;;6.68;5.07;;;;;;;0.31;100.00;103148.69;5116536;28;20038;-78
2023/01/28 03:41:24;;;;;;;7.28;5.90;;;;;;;0.30;100.00;103147.84;5116310;28;20126;-79
2023/01/28 03:43:51;;;;;;;7.78;5.72;;;;;;;0.30;100.00;103160.94;5116527;28;20039;-78
2023/01/28 03:46:17;;;;;;;7.43;5.97;;;;;;;0.30;100.00;103162.66;5115991;28;20114;-78
2023/01/28 03:48:43;;;;;;;7.93;5.53;;;;;;;0.29;100.00;103168.81;5114555;28;20036;-78
2023/01/28 03:51:09;;;;;;;6.03;5.15;;;;;;;0.29;100.00;103166.19;5115793;28;20034;-78
2023/01/28 03:53:34;;;;;;;5.82;5.22;;;;;;;0.30;100.00;103173.13;5115699;28;20031;-78
2023/01/28 03:55:59;;;;;;;8.35;5.22;;;;;;;0.30;100.00;103175.75;5115496;28;20024;-78
2023/01/28 03:58:39;;;;;;;12.57;5.10;;;;;;;0.29;100.00;103179.28;5115276;28;20027;-78
2023/01/28 04:01:04;;;;;;;6.82;4.85;;;;;;;0.29;100.00;103176.66;5116366;28;20110;-78
2023/01/28 04:03:29;;;;;;;6.10;4.97;;;;;;;0.31;100.00;103183.63;5113725;28;20476;-78
2023/01/28 04:06:04;;;;;;;8.05;5.22;;;;;;;0.30;100.00;103186.22;5114587;28;20035;-78
2023/01/28 04:08:29;;;;;;;7.90;5.60;;;;;;;0.29;100.00;103174.91;5115214;28;20103;-78
2023/01/28 04:10:55;;;;;;;5.20;4.57;;;;;;;0.28;100.00;103186.25;5115860;28;20050;-79
2023/01/28 04:13:20;;;;;;;7.25;4.85;;;;;;;0.28;100.00;103186.25;5113534;28;20085;-79
2023/01/28 04:15:47;;;;;;;7.35;5.10;;;;;;;0.28;100.00;103182.78;5115182;28;20031;-78
2023/01/28 04:18:12;;;;;;;5.78;4.70;;;;;;;0.28;100.00;103175.78;5115274;28;20041;-78
2023/01/28 04:20:38;;;;;;;6.63;5.20;;;;;;;0.27;100.00;103168.81;5115203;28;20024;-78
2023/01/28 04:23:04;;;;;;;9.65;5.60;;;;;;;0.28;100.00;103159.19;5115234;28;20039;-79
2023/01/28 04:25:30;;;;;;;9.65;5.22;;;;;;;0.27;100.00;103166.19;5113883;28;20521;-79
2023/01/28 04:27:56;;;;;;;6.90;5.32;;;;;;;0.25;100.00;103170.56;5115240;28;20084;-78
2023/01/28 04:30:22;;;;;;;6.80;5.20;;;;;;;0.23;100.00;103167.09;5115011;28;20031;-78
2023/01/28 04:32:51;;;;;;;6.43;5.63;;;;;;;0.21;100.00;103165.38;5114741;28;20058;-79
2023/01/28 04:35:17;;;;;;;8.55;5.50;;;;;;;0.16;100.00;103162.81;5115418;28;20208;-79
2023/01/28 04:37:43;;;;;;;8.07;5.68;;;;;;;0.11;100.00;103164.63;5114850;28;20038;-79
2023/01/28 04:40:11;;;;;;;8.80;5.93;;;;;;;0.02;100.00;103160.31;5115175;28;20031;-79
2023/01/28 04:42:36;;;;;;;11.90;5.75;;;;;;;-0.06;100.00;103160.41;5114603;28;20052;-79
2023/01/28 04:45:02;;;;;;;8.18;6.18;;;;;;;-0.12;100.00;103162.19;5114800;28;20040;-79
2023/01/28 04:47:28;;;;;;;8.60;5.95;;;;;;;-0.19;100.00;103158.78;5114665;28;20031;-79
2023/01/28 04:49:53;;;;;;;9.30;5.90;;;;;;;-0.24;100.00;103158.81;5115011;28;20115;-79
2023/01/28 04:52:18;;;;;;;9.32;5.25;;;;;;;-0.28;100.00;103145.78;5114380;28;20483;-80
2023/01/28 04:54:44;;;;;;;7.15;5.07;;;;;;;-0.31;100.00;103151.88;5113406;28;20463;-79
2023/01/28 04:57:09;;;;;;;6.13;5.22;;;;;;;-0.36;100.00;103156.25;5114590;28;20095;-79
2023/01/28 04:59:35;;;;;;;7.57;5.35;;;;;;;-0.40;100.00;103158.06;5113073;28;20088;-79
2023/01/28 05:02:00;;;;;;;10.45;5.70;;;;;;;-0.38;100.00;103174.59;5113284;28;20146;-79
2023/01/28 05:04:25;;;;;;;10.45;5.50;;;;;;;-0.33;100.00;103178.94;5114374;28;20063;-78
2023/01/28 05:06:51;;;;;;;8.27;5.90;;;;;;;-0.29;100.00;103170.19;5114956;28;20105;-79
2023/01/28 05:09:16;;;;;;;8.32;5.35;;;;;;;-0.25;100.00;103177.13;5114887;28;20059;-79
2023/01/28 05:11:42;;;;;;;11.55;6.00;;;;;;;-0.23;100.00;103175.38;5114135;28;20456;-79
2023/01/28 05:14:07;;;;;;;7.55;5.43;;;;;;;-0.20;100.00;103172.72;5113581;28;20055;-79
2023/01/28 05:16:33;;;;;;;7.13;5.10;;;;;;;-0.19;100.00;103170.09;5114070;28;20036;-79
2023/01/28 05:18:59;;;;;;;8.52;5.18;;;;;;;-0.19;100.00;103169.22;5114581;28;20379;-79
2023/01/28 05:21:25;;;;;;;7.15;5.35;;;;;;;-0.19;100.00;103158.78;5114059;28;20027;-78
2023/01/28 05:23:51;;;;;;;8.75;5.50;;;;;;;-0.19;100.00;103162.25;5112560;28;20043;-79
2023/01/28 05:26:16;;;;;;;8.18;6.00;;;;;;;-0.20;100.00;103154.41;5113069;28;20031;-79
2023/01/28 05:28:41;;;;;;;8.90;6.13;;;;;;;-0.21;100.00;103160.50;5113709;28;20036;-78
2023/01/28 05:31:07;;;;;;;6.75;5.32;;;;;;;-0.21;100.00;103164.00;5114189;28;20024;-79
2023/01/28 05:33:32;;;;;;;7.20;5.85;;;;;;;-0.19;100.00;103159.63;5114013;28;20043;-78
2023/01/28 05:35:58;;;;;;;7.78;5.10;;;;;;;-0.16;100.00;103160.47;5114062;28;20468;-77
2023/01/28 05:38:23;;;;;;;9.02;5.68;;;;;;;-0.14;100.00;103169.19;5114223;28;20032;-78
2023/01/28 05:40:49;;;;;;;8.52;5.60;;;;;;;-0.14;100.00;103161.34;5114332;28;20054;-78
2023/01/28 05:43:15;;;;;;;7.57;5.72;;;;;;;-0.13;100.00;103163.94;5114116;28;20451;-78
2023/01/28 05:45:41;;;;;;;6.75;5.25;;;;;;;-0.13;100.00;103157.84;5113213;28;20032;-78
2023/01/28 05:48:06;;;;;;;9.13;5.63;;;;;;;-0.14;100.00;103156.97;5113552;28;20038;-78
2023/01/28 05:50:32;;;;;;;9.73;6.35;;;;;;;-0.12;100.00;103159.56;5114189;28;20536;-78
2023/01/28 05:52:57;;;;;;;6.82;5.75;;;;;;;-0.14;100.00;103159.59;5114601;28;20043;-78
2023/01/28 05:55:23;;;;;;;8.65;5.57;;;;;;;-0.14;100.00;103158.72;5114017;28;20395;-78
2023/01/28 05:57:49;;;;;;;7.18;5.68;;;;;;;-0.17;100.00;103162.22;5114127;28;20050;-78
2023/01/28 06:00:15;;;;;;;8.00;5.63;;;;;;;-0.18;100.00;103160.47;5113666;28;20028;-78
2023/01/28 06:02:43;;;;;;;7.95;5.65;;;;;;;-0.21;100.00;103163.13;5112253;28;20039;-78
2023/01/28 06:05:09;;;;;;;8.48;6.22;;;;;;;-0.22;100.00;103161.41;5113641;28;20063;-78
2023/01/28 06:07:35;;;;;;;6.93;5.75;;;;;;;-0.22;100.00;103153.56;5113544;28;20541;-79
2023/01/28 06:10:00;;;;;;;7.47;5.78;;;;;;;-0.24;100.00;103163.16;5114000;28;20023;-79
2023/01/28 06:12:26;;;;;;;7.50;6.00;;;;;;;-0.24;100.00;103166.66;5112957;28;20465;-79
2023/01/28 06:14:51;;;;;;;9.13;6.63;;;;;;;-0.24;100.00;103173.63;5113618;28;20115;-78
2023/01/28 06:17:17;;;;;;;9.25;6.22;;;;;;;-0.24;100.00;103165.78;5113205;28;20459;-79
2023/01/28 06:19:42;;;;;;;7.15;5.75;;;;;;;-0.24;100.00;103171.91;5113704;28;20089;-78
2023/01/28 06:22:08;;;;;;;9.43;6.43;;;;;;;-0.24;100.00;103181.47;5113628;28;20110;-79
2023/01/28 06:24:34;;;;;;;8.45;6.13;;;;;;;-0.24;100.00;103177.13;5113074;28;20119;-79
2023/01/28 06:26:59;;;;;;;12.55;6.45;;;;;;;-0.24;100.00;103173.63;5112624;28;20081;-79
2023/01/28 06:29:24;;;;;;;7.82;5.80;;;;;;;-0.24;100.00;103171.91;5113638;28;20085;-79
2023/01/28 06:31:50;;;;;;;8.52;6.53;;;;;;;-0.23;100.00;103175.38;5113274;28;20541;-79
2023/01/28 06:34:15;;;;;;;12.57;6.72;;;;;;;-0.25;100.00;103166.66;5112971;28;20020;-79
2023/01/28 06:36:41;;;;;;;7.85;6.40;;;;;;;-0.23;100.00;103178.84;5114907;28;20023;-78
2023/01/28 06:39:06;;;;;;;9.32;6.60;;;;;;;-0.24;100.00;103179.75;5116707;28;20148;-79
2023/01/28 06:41:32;;;;;;;9.32;6.47;;;;;;;-0.24;100.00;103174.50;5116919;28;20032;-79
2023/01/28 06:43:57;;;;;;;8.73;5.68;;;;;;;-0.21;100.00;103174.47;5116145;28;20051;-79
2023/01/28 06:46:23;;;;;;;8.43;6.40;;;;;;;-0.19;100.00;103177.09;5116990;28;20039;-79
2023/01/28 06:48:49;;;;;;;9.82;6.28;;;;;;;-0.21;100.00;103177.09;5116771;28;20187;-79
2023/01/28 06:51:14;;;;;;;9.50;6.28;;;;;;;-0.19;100.00;103183.19;5116932;28;20036;-80
2023/01/28 06:53:40;;;;;;;8.57;6.30;;;;;;;-0.17;100.00;103191.00;5117059;28;20058;-80
2023/01/28 06:56:05;;;;;;;11.32;6.68;;;;;;;-0.17;100.00;103182.31;5116602;28;20031;-80
2023/01/28 06:58:31;;;;;;;11.07;6.28;;;;;;;-0.19;100.00;103183.19;5116136;28;20085;-80
2023/01/28 07:00:56;;;;;;;8.32;6.35;;;;;;;-0.22;100.00;103180.59;5116740;28;20114;-79
2023/01/28 07:03:22;;;;;;;11.02;6.45;;;;;;;-0.23;100.00;103185.84;5116884;28;20039;-79
2023/01/28 07:05:47;;;;;;;7.30;6.28;;;;;;;-0.25;100.00;103185.84;5115288;28;20487;-79
2023/01/28 07:08:12;;;;;;;8.80;6.55;;;;;;;-0.26;100.00;103191.94;5116755;28;20050;-79
2023/01/28 07:10:38;;;;;;;11.32;6.50;;;;;;;-0.29;100.00;103181.50;5116924;28;20032;-79
2023/01/28 07:13:03;;;;;;;13.32;6.25;;;;;;;-0.31;100.00;103178.06;5115252;28;20104;-79
2023/01/28 07:15:28;;;;;;;9.13;6.50;;;;;;;-0.32;100.00;103194.63;5116534;28;20035;-78
2023/01/28 07:17:54;;;;;;;10.15;7.13;;;;;;;-0.34;100.00;103190.25;5116336;28;20063;-78
2023/01/28 07:20:19;;;;;;;8.95;6.32;;;;;;;-0.34;100.00;103185.03;5117190;28;20035;-78
2023/01/28 07:22:45;;;;;;;10.30;6.57;;;;;;;-0.37;100.00;103192.03;5115873;28;20059;-77
2023/01/28 07:25:13;;;;;;;8.40;6.60;;;;;;;-0.39;100.00;103195.53;5117408;28;20034;-78
2023/01/28 07:27:38;;;;;;;8.63;6.75;;;;;;;-0.43;100.00;103193.84;5116547;28;20495;-78
2023/01/28 07:30:04;;;;;;;8.55;6.68;;;;;;;-0.47;100.00;103203.44;5117978;28;20031;-78
2023/01/28 07:32:30;;;;;;;9.32;6.82;;;;;;;-0.52;100.00;103186.03;5120587;28;20417;-78
2023/01/28 07:34:55;;;;;;;10.77;7.43;;;;;;;-0.55;100.00;103192.16;5119568;28;20031;-78
2023/01/28 07:37:20;;;;;;;8.38;6.82;;;;;;;-0.58;100.00;103200.91;5120160;28;20423;-77
2023/01/28 07:39:46;;;;;;;8.90;6.97;;;;;;;-0.61;100.00;103205.25;5115711;28;20028;-78
2023/01/28 07:42:11;;;;;;;9.23;6.85;;;;;;;-0.60;100.00;103202.66;5115171;28;20077;-78
2023/01/28 07:44:37;;;;;;;9.32;6.90;;;;;;;-0.57;100.00;103201.75;5114135;28;20088;-78
2023/01/28 07:47:04;;;;;;;10.98;7.65;;;;;;;-0.56;100.00;103206.13;5115628;28;20462;-78
2023/01/28 07:49:29;;;;;;;10.32;6.95;;;;;;;-0.54;100.00;103201.72;5114468;28;20034;-78
2023/01/28 07:51:54;;;;;;;9.50;6.53;;;;;;;-0.51;100.00;103206.94;5115451;28;20024;-78
2023/01/28 07:54:20;;;;;;;12.35;6.78;;;;;;;-0.48;100.00;103211.28;5116099;28;20035;-78
2023/01/28 07:56:46;;;;;;;13.05;7.40;;;;;;;-0.42;100.00;103209.53;5116422;28;20034;-78
2023/01/28 07:59:11;;;;;;;9.25;7.57;;;;;;;-0.39;100.00;103204.28;5115670;28;20092;-78
2023/01/28 08:01:37;;;;;;;9.10;7.07;;;;;;;-0.32;100.00;103220.78;5115185;28;20089;-78
2023/01/28 08:04:02;;;;;;;10.70;7.50;;;;;;;-0.28;100.00;103224.25;5115573;28;20042;-78
2023/01/28 08:06:29;;;;;;;10.68;7.00;;;;;;;-0.23;100.00;103225.94;5115813;28;20063;-78
2023/01/28 08:08:54;;;;;;;10.93;7.13;;;;;;;-0.17;100.00;103225.03;5115486;28;20023;-79
2023/01/28 08:11:20;;;;;;;13.32;7.47;;;;;;;-0.12;100.00;103225.88;5115421;28;20036;-78
2023/01/28 08:13:47;;;;;;;12.30;7.68;;;;;;;-0.08;100.00;103230.19;5115758;28;20031;-79
2023/01/28 08:16:12;;;;;;;11.30;7.35;;;;;;;-0.04;100.00;103231.91;5115100;28;20031;-78
2023/01/28 08:18:37;;;;;;;10.95;7.38;;;;;;;0.02;100.00;103224.91;5115198;28;20527;-78
2023/01/28 08:21:04;;;;;;;9.60;7.15;;;;;;;0.05;100.00;103223.13;5115071;28;20493;-78
2023/01/28 08:23:29;;;;;;;11.98;8.13;;;;;;;0.11;100.00;103241.41;5116459;28;20032;-78
2023/01/28 08:25:57;;;;;;;10.63;7.93;;;;;;;0.16;100.00;103242.25;5117536;28;20026;-78
2023/01/28 08:28:23;;;;;;;10.65;7.50;;;;;;;0.23;100.00;103244.81;5116015;28;20038;-77
2023/01/28 08:30:48;;;;;;;10.98;7.80;;;;;;;0.29;100.00;103242.13;5115659;28;20031;-78
2023/01/28 08:33:15;;;;;;;11.45;7.65;;;;;;;0.34;100.00;103249.06;5115229;28;20035;-78
2023/01/28 08:35:40;;;;;;;10.43;7.30;;;;;;;0.41;100.00;103254.25;5115341;28;20031;-78
2023/01/28 08:38:06;;;;;;;10.57;7.25;;;;;;;0.44;100.00;103252.47;5113589;28;20031;-78
2023/01/28 08:40:32;;;;;;;14.35;7.90;;;;;;;0.47;100.00;103235.84;5115165;28;20034;-77
2023/01/28 08:42:58;;;;;;;10.50;7.45;;;;;;;0.51;100.00;103250.66;5113273;28;20048;-77
2023/01/28 08:45:26;;;;;;;10.65;7.85;;;;;;;0.55;100.00;103254.09;5115561;28;20035;-75
2023/01/28 08:47:54;;;;;;;10.13;7.15;;;;;;;0.59;100.00;103263.69;5118112;28;20046;-83
2023/01/28 08:50:21;;;;;;;9.15;7.20;;;;;;;0.63;100.00;103258.41;5114213;28;20471;-75
2023/01/28 08:52:48;;;;;;;10.50;7.15;;;;;;;0.64;100.00;103260.13;5114707;28;20115;-77
2023/01/28 08:55:14;;;;;;;10.73;8.18;;;;;;;0.59;100.00;103258.44;5114949;28;20383;-77
2023/01/28 08:57:40;;;;;;;10.98;7.88;;;;;;;0.55;100.00;103270.69;5114781;28;20034;-79
2023/01/28 09:00:06;;;;;;;11.93;7.68;;;;;;;0.59;100.00;103271.53;5112904;28;20135;-75
2023/01/28 09:02:31;;;;;;;8.95;6.97;;;;;;;0.73;100.00;103268.78;5113745;28;20028;-76
2023/01/28 09:04:57;;;;;;;10.57;7.32;;;;;;;0.86;100.00;103267.75;5114699;28;20028;-77
2023/01/28 09:07:23;;;;;;;11.38;7.68;;;;;;;1.03;100.00;103271.06;5113359;28;20202;-77
2023/01/28 09:09:48;;;;;;;11.15;7.90;;;;;;;1.23;100.00;103286.56;5115167;28;20466;-79
2023/01/28 09:12:14;;;;;;;15.18;7.63;;;;;;;1.41;100.00;103289.84;5115162;28;20455;-78
2023/01/28 09:14:39;;;;;;;13.73;7.47;;;;;;;1.54;100.00;103280.06;5115373;28;20106;-76
2023/01/28 09:17:04;;;;;;;9.70;8.00;;;;;;;1.62;100.00;103290.47;5114429;28;20027;-77
2023/01/28 09:19:30;;;;;;;10.45;6.97;;;;;;;1.68;100.00;103301.72;5115323;28;20114;-78
2023/01/28 09:21:55;;;;;;;10.15;7.28;;;;;;;1.71;100.00;103301.69;5115042;28;20034;-77
2023/01/28 09:24:21;;;;;;;10.95;7.93;;;;;;;1.80;100.00;103294.59;5113042;28;20069;-77
2023/01/28 09:26:49;;;;;;;9.05;6.95;;;;;;;1.86;100.00;103295.34;5114027;28;20371;-77
2023/01/28 09:29:15;;;;;;;11.10;7.70;;;;;;;1.99;100.00;103297.81;5114012;28;20028;-75
2023/01/28 09:31:41;;;;;;;10.90;7.63;;;;;;;2.11;100.00;103305.50;5115167;28;20032;-76
2023/01/28 09:34:07;;;;;;;14.07;8.15;;;;;;;2.20;100.00;103297.47;5113955;28;20092;-77
2023/01/28 09:36:33;;;;;;;9.07;7.32;;;;;;;2.27;100.00;103293.84;5114204;28;20036;-75
2023/01/28 09:38:58;;;;;;;9.82;7.38;;;;;;;2.32;100.00;103296.41;5095655;28;20480;-76
2023/01/28 09:41:57;;;;;;;11.07;7.57;;;;;;;2.37;100.00;103310.31;5113722;28;20042;-77
2023/01/28 09:44:29;;;;;;;10.43;7.55;;;;;;;2.32;100.00;103308.69;5117482;28;20111;-80
2023/01/28 09:47:01;;;;;;;11.57;7.72;;;;;;;2.36;100.00;103303.34;5116402;28;20031;-78
2023/01/28 09:49:35;;;;;;;11.48;7.85;;;;;;;2.35;100.00;103306.84;5113878;28;20039;-81
2023/01/28 09:52:02;;;;;;;10.00;7.65;;;;;;;2.30;100.00;103306.06;5114479;28;20464;-76
2023/01/28 09:54:51;;;;;;;12.05;7.75;;;;;;;2.19;100.00;103310.63;5113645;28;20042;-72
2023/01/28 09:57:22;;;;;;;11.20;7.47;;;;;;;2.37;100.00;103312.09;5111965;28;20022;-72
2023/01/28 09:59:48;;;;;;;;;;;;;;;2.29;100.00;103317.47;5113997;28;20035;-73
2023/01/28 10:02:32;;;;;;;10.43;7.97;;;;;;;2.21;100.00;103327.22;5113802;28;19908;-73
2023/01/28 10:05:07;;;;;;;9.00;7.10;;;;;;;2.26;100.00;103339.41;5113163;28;20149;-73
2023/01/28 10:07:53;;;;;;;9.85;7.25;;;;;;;2.52;100.00;103330.22;5112701;28;20419;-74
2023/01/28 10:10:29;;;;;;;8.27;7.07;;;;;;;2.75;100.00;103321.94;5113356;28;20028;-78
2023/01/28 10:13:20;;;;;;;12.90;7.95;;;;;;;2.83;100.00;103313.91;5117456;28;20036;-76
2023/01/28 10:15:53;;;;;;;8.18;6.85;;;;;;;2.91;100.00;103319.03;5118085;28;20076;-75
2023/01/28 10:18:50;;;;;;;9.95;7.63;;;;;;;2.89;100.00;103311.16;5118943;28;20031;-75
2023/01/28 10:21:23;;;;;;;8.57;7.25;;;;;;;2.85;100.00;103311.25;5115249;28;20043;-75
2023/01/28 10:23:54;;;;;;;11.32;7.53;;;;;;;2.75;100.00;103310.56;5116203;28;20031;-75
2023/01/28 10:26:33;;;;;;;12.30;7.10;;;;;;;2.73;100.00;103301.81;5117302;28;20024;-76
2023/01/28 10:29:08;;;;;;;9.68;7.78;;;;;;;2.67;100.00;103307.19;5118017;28;20531;-76
2023/01/28 10:31:38;;;;;;;11.45;7.15;;;;;;;2.71;100.00;103308.88;5117646;28;20061;-75
2023/01/28 10:34:03;;;;;;;11.18;6.90;;;;;;;2.77;100.00;103314.03;5117403;28;20477;-76
2023/01/28 10:36:29;;;;;;;8.35;7.18;;;;;;;2.83;100.00;103311.28;5116598;28;20039;-76
2023/01/28 10:38:55;;;;;;;7.88;6.95;;;;;;;2.95;100.00;103311.03;5117168;28;20055;-76
2023/01/28 10:41:21;;;;;;;9.30;6.35;;;;;;;3.11;100.00;103308.16;5116096;28;20038;-75
2023/01/28 10:43:48;;;;;;;8.35;6.25;;;;;;;3.23;100.00;103305.25;5117094;28;20472;-76
2023/01/28 10:46:31;;;;;;;8.40;6.18;;;;;;;3.51;100.00;103289.75;5116299;28;20466;-74
2023/01/28 10:49:08;;;;;;;9.65;6.57;;;;;;;3.80;100.00;103277.69;5117216;28;20032;-75
2023/01/28 10:51:37;;;;;;;7.03;6.32;;;;;;;4.13;100.00;103272.53;5116606;28;20054;-76
2023/01/28 10:54:03;;;;;;;7.00;5.60;;;;;;;4.68;100.00;103272.03;5116830;28;20462;-74
2023/01/28 10:56:34;;;;;;;10.75;5.80;;;;;;;5.39;100.00;103268.25;5115624;28;20057;-75
2023/01/28 10:59:03;;;;;;;;;;;;;;;5.97;100.00;103260.34;5116984;28;20452;-75
2023/01/28 11:01:44;;;;;;;9.75;5.80;;;;;;;6.33;95.10;103238.00;5116349;28;20424;-76
2023/01/28 11:04:24;;;;;;;8.02;5.75;;;;;;;6.82;92.97;103232.75;5116937;28;20031;-75
2023/01/28 11:07:00;;;;;;;8.90;5.43;;;;;;;6.66;84.71;103230.66;5116465;28;20031;-75
2023/01/28 11:09:36;;;;;;;8.07;5.78;;;;;;;6.29;89.10;103236.38;5116954;28;20104;-74
2023/01/28 11:12:21;;;;;;;7.10;5.72;;;;;;;6.38;92.01;103235.22;5116314;28;20057;-74
2023/01/28 11:14:56;;;;;;;5.78;4.82;;;;;;;6.18;90.21;103229.69;5116440;28;20136;-74
2023/01/28 11:17:25;;;;;;;9.27;5.70;;;;;;;6.03;93.16;103224.03;5116833;28;20035;-74
2023/01/28 11:19:52;;;;;;;8.93;4.70;;;;;;;5.61;94.29;103209.50;5116239;28;20024;-75
2023/01/28 11:22:37;;;;;;;6.30;5.18;;;;;;;5.27;98.81;103208.78;5115592;28;20053;-76
2023/01/28 11:25:36;;;;;;;8.75;4.70;;;;;;;5.03;100.00;103205.09;5116813;28;20065;-76
2023/01/28 11:28:06;;;;;;;4.32;3.85;;;;;;;5.03;100.00;103191.91;5115932;28;20072;-76
2023/01/28 11:30:35;;;;;;;8.13;4.18;;;;;;;5.07;98.14;103182.09;5117278;28;20034;-76
2023/01/28 11:33:09;;;;;;;6.22;4.00;;;;;;;4.98;100.00;103167.41;5116708;28;20031;-75
2023/01/28 11:35:35;;;;;;;5.28;3.78;;;;;;;5.03;100.00;103170.78;5115881;28;20194;-73
2023/01/28 11:38:00;;;;;;;7.25;4.22;;;;;;;5.43;95.60;103193.34;5115949;28;20492;-75
2023/01/28 11:40:26;;;;;;;7.53;4.70;;;;;;;5.62;91.17;103204.16;5115124;28;20036;-75
2023/01/28 11:42:55;;;;;;;9.13;4.78;;;;;;;5.54;96.02;103197.38;5115902;28;20075;-77
2023/01/28 11:45:33;;;;;;;7.93;5.75;;;;;;;5.55;100.00;103189.41;5115768;28;20038;-74
2023/01/28 11:48:08;;;;;;;7.68;5.60;;;;;;;5.48;100.00;103198.47;5115870;28;20525;-75
2023/01/28 11:50:38;;;;;;;8.80;5.55;;;;;;;5.39;100.00;103194.34;5116385;28;20019;-76
2023/01/28 11:53:21;;;;;;;8.40;5.00;;;;;;;5.32;100.00;103202.50;5115548;28;20416;-76
2023/01/28 11:56:06;;;;;;;7.18;5.40;;;;;;;5.38;100.00;103204.94;5115784;28;20028;-76
2023/01/28 11:59:09;;;;;;;14.35;6.18;;;;;;;5.64;100.00;103199.72;5115780;28;20034;-75
2023/01/28 12:01:34;;;;;;;6.00;5.38;;;;;;;5.69;100.00;103207.47;5115896;28;20114;-75